sensor_id;sensor_type;location;lat;lon;timestamp;pressure;altitude;pressure_sealevel;temperature;humidity
78845;BME280;68195;50.854;2.860;2023-08-20T00:00:13;101975.81;;;18.85;100.00
78845;BME280;68195;50.854;2.860;2023-08-20T00:02:41;101984.28;;;18.91;100.00
78845;BME280;68195;50.854;2.860;2023-08-20T00:05:08;101997.13;;;18.97;100.00
78845;BME280;68195;50.854;2.860;2023-08-20T00:07:34;101972.59;;;18.80;100.00
78845;BME280;68195;50.854;2.860;2023-08-20T00:10:00;101982.03;;;18.84;100.00
78845;BME280;68195;50.854;2.860;2023-08-20T00:12:25;102000.81;;;18.94;100.00
78845;BME280;68195;50.854;2.860;2023-08-20T00:17:28;101986.56;;;18.82;100.00
78845;BME280;68195;50.854;2.860;2023-08-20T00:19:56;101996.97;;;18.85;100.00
78845;BME280;68195;50.854;2.860;2023-08-20T00:22:23;102007.34;;;18.89;100.00
78845;BME280;68195;50.854;2.860;2023-08-20T00:24:50;101998.13;;;18.81;100.00
78845;BME280;68195;50.854;2.860;2023-08-20T00:27:18;101970.44;;;18.58;100.00
78845;BME280;68195;50.854;2.860;2023-08-20T00:29:46;101988.28;;;18.69;100.00
78845;BME280;68195;50.854;2.860;2023-08-20T00:32:17;101982.63;;;18.61;100.00
78845;BME280;68195;50.854;2.860;2023-08-20T00:34:47;101976.88;;;18.54;100.00
78845;BME280;68195;50.854;2.860;2023-08-20T00:37:12;102006.72;;;18.71;100.00
78845;BME280;68195;50.854;2.860;2023-08-20T00:39:38;101972.66;;;18.52;100.00
78845;BME280;68195;50.854;2.860;2023-08-20T00:42:06;102008.63;;;18.69;100.00
78845;BME280;68195;50.854;2.860;2023-08-20T00:44:33;101978.78;;;18.52;100.00
78845;BME280;68195;50.854;2.860;2023-08-20T00:47:01;102000.22;;;18.62;100.00
78845;BME280;68195;50.854;2.860;2023-08-20T00:49:30;101970.59;;;18.42;100.00
78845;BME280;68195;50.854;2.860;2023-08-20T00:51:56;101993.50;;;18.56;100.00
78845;BME280;68195;50.854;2.860;2023-08-20T00:54:22;101997.66;;;18.60;100.00
78845;BME280;68195;50.854;2.860;2023-08-20T00:56:49;102002.50;;;18.54;100.00
78845;BME280;68195;50.854;2.860;2023-08-20T00:59:15;102005.06;;;18.55;100.00
78845;BME280;68195;50.854;2.860;2023-08-20T01:01:43;101987.59;;;18.38;100.00
78845;BME280;68195;50.854;2.860;2023-08-20T01:04:11;101984.38;;;18.33;100.00
78845;BME280;68195;50.854;2.860;2023-08-20T01:12:02;102000.06;;;18.36;100.00
78845;BME280;68195;50.854;2.860;2023-08-20T01:14:27;102026.31;;;18.39;100.00
78845;BME280;68195;50.854;2.860;2023-08-20T01:16:53;102015.56;;;18.28;100.00
78845;BME280;68195;50.854;2.860;2023-08-20T01:19:23;101991.88;;;18.12;100.00
78845;BME280;68195;50.854;2.860;2023-08-20T01:30:03;102026.13;;;18.14;100.00
78845;BME280;68195;50.854;2.860;2023-08-20T01:32:32;102018.00;;;18.02;100.00
78845;BME280;68195;50.854;2.860;2023-08-20T01:34:58;102006.78;;;17.85;100.00
78845;BME280;68195;50.854;2.860;2023-08-20T01:37:26;102028.13;;;17.96;100.00
78845;BME280;68195;50.854;2.860;2023-08-20T01:39:51;101994.47;;;17.69;100.00
78845;BME280;68195;50.854;2.860;2023-08-20T01:42:19;102003.03;;;17.73;100.00
78845;BME280;68195;50.854;2.860;2023-08-20T01:44:47;102023.69;;;17.82;100.00
78845;BME280;68195;50.854;2.860;2023-08-20T01:47:13;101991.41;;;17.61;100.00
78845;BME280;68195;50.854;2.860;2023-08-20T01:49:38;102019.84;;;17.72;100.00
78845;BME280;68195;50.854;2.860;2023-08-20T01:52:03;102026.81;;;17.73;100.00
78845;BME280;68195;50.854;2.860;2023-08-20T01:54:29;102027.94;;;17.69;100.00
78845;BME280;68195;50.854;2.860;2023-08-20T01:56:55;102024.72;;;17.63;100.00
78845;BME280;68195;50.854;2.860;2023-08-20T01:59:22;102036.06;;;17.66;100.00
78845;BME280;68195;50.854;2.860;2023-08-20T02:01:48;102038.84;;;17.48;100.00
78845;BME280;68195;50.854;2.860;2023-08-20T02:04:14;102030.59;;;17.38;100.00
78845;BME280;68195;50.854;2.860;2023-08-20T02:06:39;102021.41;;;17.30;100.00
78845;BME280;68195;50.854;2.860;2023-08-20T02:09:05;102038.44;;;17.40;100.00
78845;BME280;68195;50.854;2.860;2023-08-20T02:11:32;102036.63;;;17.40;100.00
78845;BME280;68195;50.854;2.860;2023-08-20T02:14:03;102043.56;;;17.43;100.00
78845;BME280;68195;50.854;2.860;2023-08-20T02:16:29;102046.28;;;17.41;100.00
78845;BME280;68195;50.854;2.860;2023-08-20T02:18:54;102046.28;;;17.41;100.00
78845;BME280;68195;50.854;2.860;2023-08-20T02:21:20;102025.00;;;17.29;100.00
78845;BME280;68195;50.854;2.860;2023-08-20T02:23:45;102019.16;;;17.24;100.00
78845;BME280;68195;50.854;2.860;2023-08-20T02:26:11;102035.97;;;17.37;100.00
78845;BME280;68195;50.854;2.860;2023-08-20T02:28:36;102031.63;;;17.36;100.00
78845;BME280;68195;50.854;2.860;2023-08-20T02:31:05;102026.81;;;17.28;100.00
78845;BME280;68195;50.854;2.860;2023-08-20T02:33:31;102024.16;;;17.28;100.00
78845;BME280;68195;50.854;2.860;2023-08-20T02:36:04;102049.75;;;17.42;100.00
78845;BME280;68195;50.854;2.860;2023-08-20T02:38:32;102019.16;;;17.24;100.00
78845;BME280;68195;50.854;2.860;2023-08-20T02:40:58;102034.59;;;17.30;100.00
78845;BME280;68195;50.854;2.860;2023-08-20T02:43:28;102048.31;;;17.36;100.00
78845;BME280;68195;50.854;2.860;2023-08-20T02:45:53;102038.63;;;17.21;100.00
78845;BME280;68195;50.854;2.860;2023-08-20T02:48:19;102052.09;;;17.32;100.00
78845;BME280;68195;50.854;2.860;2023-08-20T02:50:47;102036.75;;;17.23;100.00
78845;BME280;68195;50.854;2.860;2023-08-20T02:53:12;102014.38;;;17.14;100.00
78845;BME280;68195;50.854;2.860;2023-08-20T02:55:38;102032.44;;;17.22;100.00
78845;BME280;68195;50.854;2.860;2023-08-20T02:58:03;102058.78;;;17.38;100.00
78845;BME280;68195;50.854;2.860;2023-08-20T03:00:30;102022.28;;;17.14;100.00
78845;BME280;68195;50.854;2.860;2023-08-20T03:02:58;102054.81;;;17.31;100.00
78845;BME280;68195;50.854;2.860;2023-08-20T03:05:26;102065.28;;;17.32;100.00
78845;BME280;68195;50.854;2.860;2023-08-20T03:07:51;102072.19;;;17.35;100.00
78845;BME280;68195;50.854;2.860;2023-08-20T03:10:17;102021.97;;;17.05;100.00
78845;BME280;68195;50.854;2.860;2023-08-20T03:12:47;102056.75;;;17.27;100.00
78845;BME280;68195;50.854;2.860;2023-08-20T03:15:12;102049.31;;;17.19;100.00
78845;BME280;68195;50.854;2.860;2023-08-20T03:17:38;102027.00;;;17.09;100.00
78845;BME280;68195;50.854;2.860;2023-08-20T03:20:08;102064.81;;;17.26;100.00
78845;BME280;68195;50.854;2.860;2023-08-20T03:22:38;102061.88;;;17.30;100.00
78845;BME280;68195;50.854;2.860;2023-08-20T03:25:05;102063.84;;;17.27;100.00
78845;BME280;68195;50.854;2.860;2023-08-20T03:27:31;102053.06;;;17.15;100.00
78845;BME280;68195;50.854;2.860;2023-08-20T03:29:56;102071.84;;;17.25;100.00
78845;BME280;68195;50.854;2.860;2023-08-20T03:32:24;102039.44;;;17.07;100.00
78845;BME280;68195;50.854;2.860;2023-08-20T03:34:50;102070.06;;;17.26;100.00
78845;BME280;68195;50.854;2.860;2023-08-20T03:37:15;102048.97;;;17.10;100.00
78845;BME280;68195;50.854;2.860;2023-08-20T03:39:41;102072.28;;;17.17;100.00
78845;BME280;68195;50.854;2.860;2023-08-20T03:42:06;102038.09;;;17.00;100.00
78845;BME280;68195;50.854;2.860;2023-08-20T03:44:32;102038.25;;;16.97;100.00
78845;BME280;68195;50.854;2.860;2023-08-20T03:46:57;102056.72;;;16.97;100.00
78845;BME280;68195;50.854;2.860;2023-08-20T03:49:23;102070.53;;;17.02;100.00
78845;BME280;68195;50.854;2.860;2023-08-20T03:51:48;102069.75;;;17.00;100.00
78845;BME280;68195;50.854;2.860;2023-08-20T03:54:16;102056.28;;;16.89;100.00
78845;BME280;68195;50.854;2.860;2023-08-20T03:56:44;102072.88;;;16.91;100.00
78845;BME280;68195;50.854;2.860;2023-08-20T03:59:09;102046.47;;;16.75;100.00
78845;BME280;68195;50.854;2.860;2023-08-20T04:01:34;102090.19;;;16.96;100.00
78845;BME280;68195;50.854;2.860;2023-08-20T04:04:05;102064.63;;;16.81;100.00
78845;BME280;68195;50.854;2.860;2023-08-20T04:06:33;102098.59;;;16.87;100.00
78845;BME280;68195;50.854;2.860;2023-08-20T04:08:58;102080.41;;;16.83;100.00
78845;BME280;68195;50.854;2.860;2023-08-20T04:11:24;102099.44;;;16.88;100.00
78845;BME280;68195;50.854;2.860;2023-08-20T04:13:49;102051.75;;;16.59;100.00
78845;BME280;68195;50.854;2.860;2023-08-20T04:16:15;102085.66;;;16.83;100.00
78845;BME280;68195;50.854;2.860;2023-08-20T04:18:42;102087.34;;;16.84;100.00
78845;BME280;68195;50.854;2.860;2023-08-20T04:21:08;102094.19;;;16.88;100.00
78845;BME280;68195;50.854;2.860;2023-08-20T04:23:33;102095.97;;;16.87;100.00
78845;BME280;68195;50.854;2.860;2023-08-20T04:25:58;102081.47;;;16.78;100.00
78845;BME280;68195;50.854;2.860;2023-08-20T04:28:28;102076.34;;;16.75;100.00
78845;BME280;68195;50.854;2.860;2023-08-20T04:30:54;102085.78;;;16.79;100.00
78845;BME280;68195;50.854;2.860;2023-08-20T04:33:22;102069.69;;;16.68;100.00
78845;BME280;68195;50.854;2.860;2023-08-20T04:35:48;102096.75;;;16.89;100.00
78845;BME280;68195;50.854;2.860;2023-08-20T04:38:16;102092.38;;;16.88;100.00
78845;BME280;68195;50.854;2.860;2023-08-20T04:40:42;102063.72;;;16.65;100.00
78845;BME280;68195;50.854;2.860;2023-08-20T04:43:10;102071.66;;;16.65;100.00
78845;BME280;68195;50.854;2.860;2023-08-20T04:45:38;102104.91;;;16.85;100.00
78845;BME280;68195;50.854;2.860;2023-08-20T04:48:03;102093.88;;;16.76;100.00
78845;BME280;68195;50.854;2.860;2023-08-20T04:50:31;102106.97;;;16.62;100.00
78845;BME280;68195;50.854;2.860;2023-08-20T04:52:58;102092.03;;;16.12;100.00
78845;BME280;68195;50.854;2.860;2023-08-20T04:55:28;102084.59;;;15.85;100.00
78845;BME280;68195;50.854;2.860;2023-08-20T04:57:56;102104.56;;;15.89;100.00
78845;BME280;68195;50.854;2.860;2023-08-20T05:00:23;102114.44;;;16.03;100.00
78845;BME280;68195;50.854;2.860;2023-08-20T05:02:49;102080.72;;;15.92;100.00
78845;BME280;68195;50.854;2.860;2023-08-20T05:05:20;102088.94;;;16.04;100.00
78845;BME280;68195;50.854;2.860;2023-08-20T05:07:45;102098.97;;;16.13;100.00
78845;BME280;68195;50.854;2.860;2023-08-20T05:10:10;102095.44;;;16.14;100.00
78845;BME280;68195;50.854;2.860;2023-08-20T05:12:36;102115.03;;;16.26;100.00
78845;BME280;68195;50.854;2.860;2023-08-20T05:15:04;102122.53;;;16.33;100.00
78845;BME280;68195;50.854;2.860;2023-08-20T05:17:32;102119.97;;;16.32;100.00
78845;BME280;68195;50.854;2.860;2023-08-20T05:19:57;102131.06;;;16.38;100.00
78845;BME280;68195;50.854;2.860;2023-08-20T05:22:23;102117.94;;;16.37;100.00
78845;BME280;68195;50.854;2.860;2023-08-20T05:24:48;102098.81;;;16.33;100.00
78845;BME280;68195;50.854;2.860;2023-08-20T05:27:17;102095.53;;;16.28;100.00
78845;BME280;68195;50.854;2.860;2023-08-20T05:29:43;102117.78;;;16.40;100.00
78845;BME280;68195;50.854;2.860;2023-08-20T05:32:10;102135.06;;;16.46;100.00
78845;BME280;68195;50.854;2.860;2023-08-20T05:34:41;102135.16;;;16.44;100.00
78845;BME280;68195;50.854;2.860;2023-08-20T05:37:06;102107.22;;;16.24;100.00
78845;BME280;68195;50.854;2.860;2023-08-20T05:39:37;102138.47;;;16.48;100.00
78845;BME280;68195;50.854;2.860;2023-08-20T05:42:03;102124.75;;;16.41;100.00
78845;BME280;68195;50.854;2.860;2023-08-20T05:44:29;102093.84;;;16.27;100.00
78845;BME280;68195;50.854;2.860;2023-08-20T05:46:54;102120.88;;;16.48;100.00
78845;BME280;68195;50.854;2.860;2023-08-20T05:49:20;102124.38;;;16.49;100.00
78845;BME280;68195;50.854;2.860;2023-08-20T05:51:45;102136.91;;;16.61;100.00
78845;BME280;68195;50.854;2.860;2023-08-20T05:54:11;102131.66;;;16.61;100.00
78845;BME280;68195;50.854;2.860;2023-08-20T05:56:39;102131.00;;;16.56;100.00
78845;BME280;68195;50.854;2.860;2023-08-20T05:59:07;102123.44;;;16.50;100.00
78845;BME280;68195;50.854;2.860;2023-08-20T06:01:35;102129.78;;;16.63;100.00
78845;BME280;68195;50.854;2.860;2023-08-20T06:04:00;102116.97;;;16.55;100.00
78845;BME280;68195;50.854;2.860;2023-08-20T06:06:27;102118.78;;;16.55;100.00
78845;BME280;68195;50.854;2.860;2023-08-20T06:08:52;102131.47;;;16.64;100.00
78845;BME280;68195;50.854;2.860;2023-08-20T06:11:21;102136.25;;;16.73;100.00
78845;BME280;68195;50.854;2.860;2023-08-20T06:13:46;102128.44;;;16.72;100.00
78845;BME280;68195;50.854;2.860;2023-08-20T06:16:12;102131.50;;;16.80;100.00
78845;BME280;68195;50.854;2.860;2023-08-20T06:18:42;102133.75;;;16.88;100.00
78845;BME280;68195;50.854;2.860;2023-08-20T06:21:07;102124.03;;;16.88;100.00
78845;BME280;68195;50.854;2.860;2023-08-20T06:23:33;102122.25;;;16.89;100.00
78845;BME280;68195;50.854;2.860;2023-08-20T06:26:00;102110.84;;;16.88;100.00
78845;BME280;68195;50.854;2.860;2023-08-20T06:28:26;102117.75;;;16.91;100.00
78845;BME280;68195;50.854;2.860;2023-08-20T06:30:51;102153.50;;;17.12;100.00
78845;BME280;68195;50.854;2.860;2023-08-20T06:33:16;102112.31;;;16.94;100.00
78845;BME280;68195;50.854;2.860;2023-08-20T06:35:42;102107.69;;;16.97;100.00
78845;BME280;68195;50.854;2.860;2023-08-20T06:38:10;102124.31;;;17.15;100.00
78845;BME280;68195;50.854;2.860;2023-08-20T06:40:38;102134.19;;;17.28;100.00
78845;BME280;68195;50.854;2.860;2023-08-20T06:43:05;102137.00;;;17.25;100.00
78845;BME280;68195;50.854;2.860;2023-08-20T06:45:31;102171.09;;;17.45;100.00
78845;BME280;68195;50.854;2.860;2023-08-20T06:47:56;102139.53;;;17.42;100.00
78845;BME280;68195;50.854;2.860;2023-08-20T06:50:24;102111.44;;;17.25;100.00
78845;BME280;68195;50.854;2.860;2023-08-20T06:52:49;102145.19;;;17.52;100.00
78845;BME280;68195;50.854;2.860;2023-08-20T06:55:14;102123.53;;;17.45;100.00
78845;BME280;68195;50.854;2.860;2023-08-20T06:57:43;102150.63;;;17.65;100.00
78845;BME280;68195;50.854;2.860;2023-08-20T07:00:08;102149.31;;;17.72;100.00
78845;BME280;68195;50.854;2.860;2023-08-20T07:02:34;102141.19;;;17.75;100.00
78845;BME280;68195;50.854;2.860;2023-08-20T07:05:00;102154.69;;;17.86;100.00
78845;BME280;68195;50.854;2.860;2023-08-20T07:07:25;102124.31;;;17.77;100.00
78845;BME280;68195;50.854;2.860;2023-08-20T07:09:51;102134.41;;;17.87;100.00
78845;BME280;68195;50.854;2.860;2023-08-20T07:12:16;102139.97;;;17.96;100.00
78845;BME280;68195;50.854;2.860;2023-08-20T07:14:44;102157.56;;;18.12;100.00
78845;BME280;68195;50.854;2.860;2023-08-20T07:17:09;102146.63;;;18.18;100.00
78845;BME280;68195;50.854;2.860;2023-08-20T07:19:39;102167.25;;;18.41;100.00
78845;BME280;68195;50.854;2.860;2023-08-20T07:22:11;102160.47;;;18.52;100.00
78845;BME280;68195;50.854;2.860;2023-08-20T07:24:37;102159.34;;;18.56;100.00
78845;BME280;68195;50.854;2.860;2023-08-20T07:27:05;102157.63;;;18.55;100.00
78845;BME280;68195;50.854;2.860;2023-08-20T07:29:36;102154.44;;;18.64;100.00
78845;BME280;68195;50.854;2.860;2023-08-20T07:32:01;102173.53;;;18.98;100.00
78845;BME280;68195;50.854;2.860;2023-08-20T07:34:30;102141.41;;;18.90;100.00
78845;BME280;68195;50.854;2.860;2023-08-20T07:36:59;102158.31;;;19.16;100.00
78845;BME280;68195;50.854;2.860;2023-08-20T07:39:25;102163.84;;;19.25;100.00
78845;BME280;68195;50.854;2.860;2023-08-20T07:41:54;102155.59;;;19.30;100.00
78845;BME280;68195;50.854;2.860;2023-08-20T07:44:20;102165.22;;;19.45;100.00
78845;BME280;68195;50.854;2.860;2023-08-20T07:46:45;102159.22;;;19.56;100.00
78845;BME280;68195;50.854;2.860;2023-08-20T07:49:11;102162.03;;;19.67;100.00
78845;BME280;68195;50.854;2.860;2023-08-20T07:51:36;102170.59;;;19.85;100.00
78845;BME280;68195;50.854;2.860;2023-08-20T07:54:01;102164.88;;;19.92;100.00
78845;BME280;68195;50.854;2.860;2023-08-20T07:56:29;102168.41;;;20.05;100.00
78845;BME280;68195;50.854;2.860;2023-08-20T07:58:55;102182.97;;;20.25;100.00
78845;BME280;68195;50.854;2.860;2023-08-20T08:01:23;102173.34;;;20.37;100.00
78845;BME280;68195;50.854;2.860;2023-08-20T08:03:51;102164.91;;;20.30;99.14
78845;BME280;68195;50.854;2.860;2023-08-20T08:06:16;102182.97;;;20.51;96.20
78845;BME280;68195;50.854;2.860;2023-08-20T08:08:48;102186.31;;;20.67;97.10
78845;BME280;68195;50.854;2.860;2023-08-20T08:11:14;102155.19;;;20.56;97.83
78845;BME280;68195;50.854;2.860;2023-08-20T08:13:42;102174.19;;;20.76;97.51
78845;BME280;68195;50.854;2.860;2023-08-20T08:16:07;102189.78;;;20.93;97.51
78845;BME280;68195;50.854;2.860;2023-08-20T08:18:32;102170.47;;;20.78;94.55
78845;BME280;68195;50.854;2.860;2023-08-20T08:20:58;102178.75;;;20.86;95.74
78845;BME280;68195;50.854;2.860;2023-08-20T08:23:26;102155.50;;;20.77;94.29
78845;BME280;68195;50.854;2.860;2023-08-20T08:25:51;102171.63;;;20.87;94.15
78845;BME280;68195;50.854;2.860;2023-08-20T08:28:16;102199.94;;;21.12;93.55
78845;BME280;68195;50.854;2.860;2023-08-20T08:30:42;102179.66;;;21.11;91.81
78845;BME280;68195;50.854;2.860;2023-08-20T08:33:10;102183.88;;;21.14;91.47
78845;BME280;68195;50.854;2.860;2023-08-20T08:35:39;102178.25;;;21.18;92.49
78845;BME280;68195;50.854;2.860;2023-08-20T08:38:05;102187.75;;;21.34;93.40
78845;BME280;68195;50.854;2.860;2023-08-20T08:40:33;102191.47;;;21.44;93.73
78845;BME280;68195;50.854;2.860;2023-08-20T08:42:58;102196.13;;;21.53;92.17
78845;BME280;68195;50.854;2.860;2023-08-20T08:45:28;102195.72;;;21.46;90.56
78845;BME280;68195;50.854;2.860;2023-08-20T08:47:57;102174.25;;;21.37;90.54
78845;BME280;68195;50.854;2.860;2023-08-20T08:50:22;102211.13;;;21.78;91.58
78845;BME280;68195;50.854;2.860;2023-08-20T08:52:51;102220.84;;;21.90;88.23
78845;BME280;68195;50.854;2.860;2023-08-20T08:55:17;102201.03;;;21.95;87.38
78845;BME280;68195;50.854;2.860;2023-08-20T08:57:45;102190.97;;;21.87;82.93
78845;BME280;68195;50.854;2.860;2023-08-20T09:00:13;102209.28;;;22.03;87.03
78845;BME280;68195;50.854;2.860;2023-08-20T09:02:39;102208.69;;;21.99;86.56
78845;BME280;68195;50.854;2.860;2023-08-20T09:05:09;102183.28;;;22.06;85.57
78845;BME280;68195;50.854;2.860;2023-08-20T09:07:42;102215.00;;;22.09;83.29
78845;BME280;68195;50.854;2.860;2023-08-20T09:10:07;102205.81;;;22.13;86.00
78845;BME280;68195;50.854;2.860;2023-08-20T09:12:34;102203.97;;;22.38;86.94
78845;BME280;68195;50.854;2.860;2023-08-20T09:15:10;102215.38;;;22.63;84.78
78845;BME280;68195;50.854;2.860;2023-08-20T09:17:35;102210.31;;;22.71;82.09
78845;BME280;68195;50.854;2.860;2023-08-20T09:20:03;102204.47;;;22.55;82.58
78845;BME280;68195;50.854;2.860;2023-08-20T09:22:36;102206.66;;;22.61;82.45
78845;BME280;68195;50.854;2.860;2023-08-20T09:25:03;102172.28;;;22.58;80.36
78845;BME280;68195;50.854;2.860;2023-08-20T09:27:29;102200.50;;;22.83;78.10
78845;BME280;68195;50.854;2.860;2023-08-20T09:29:55;102183.66;;;22.82;77.28
78845;BME280;68195;50.854;2.860;2023-08-20T09:32:25;102217.81;;;23.00;78.31
78845;BME280;68195;50.854;2.860;2023-08-20T09:34:52;102208.00;;;23.23;76.79
78845;BME280;68195;50.854;2.860;2023-08-20T09:37:23;102181.03;;;23.05;73.63
78845;BME280;68195;50.854;2.860;2023-08-20T09:39:49;102200.75;;;23.25;74.40
78845;BME280;68195;50.854;2.860;2023-08-20T09:42:15;102209.09;;;23.31;73.89
78845;BME280;68195;50.854;2.860;2023-08-20T09:44:42;102202.84;;;23.53;75.61
78845;BME280;68195;50.854;2.860;2023-08-20T09:47:10;102199.53;;;23.72;72.46
78845;BME280;68195;50.854;2.860;2023-08-20T09:49:43;102190.72;;;23.93;73.29
78845;BME280;68195;50.854;2.860;2023-08-20T09:52:21;102173.88;;;24.13;74.29
78845;BME280;68195;50.854;2.860;2023-08-20T09:57:30;102182.84;;;24.12;72.54
78845;BME280;68195;50.854;2.860;2023-08-20T10:00:00;102181.34;;;23.99;74.01
78845;BME280;68195;50.854;2.860;2023-08-20T10:02:26;102177.44;;;23.82;72.97
78845;BME280;68195;50.854;2.860;2023-08-20T10:04:52;102165.13;;;23.69;71.84
78845;BME280;68195;50.854;2.860;2023-08-20T10:07:18;102170.84;;;23.53;72.51
78845;BME280;68195;50.854;2.860;2023-08-20T10:09:46;102167.97;;;23.45;73.09
78845;BME280;68195;50.854;2.860;2023-08-20T10:12:14;102161.94;;;23.75;72.63
78845;BME280;68195;50.854;2.860;2023-08-20T10:14:43;102159.50;;;23.72;70.97
78845;BME280;68195;50.854;2.860;2023-08-20T10:17:11;102132.34;;;23.46;70.38
78845;BME280;68195;50.854;2.860;2023-08-20T10:19:37;102157.13;;;23.58;71.34
78845;BME280;68195;50.854;2.860;2023-08-20T10:22:07;102175.63;;;23.71;73.14
78845;BME280;68195;50.854;2.860;2023-08-20T10:24:54;102160.28;;;23.95;72.00
78845;BME280;68195;50.854;2.860;2023-08-20T10:27:36;102157.88;;;24.13;71.05
78845;BME280;68195;50.854;2.860;2023-08-20T10:30:08;102137.94;;;23.97;69.48
78845;BME280;68195;50.854;2.860;2023-08-20T10:32:59;102151.81;;;24.11;71.19
78845;BME280;68195;50.854;2.860;2023-08-20T10:35:50;102167.75;;;24.23;69.32
78845;BME280;68195;50.854;2.860;2023-08-20T10:38:19;102144.91;;;23.88;70.67
78845;BME280;68195;50.854;2.860;2023-08-20T10:43:30;102170.53;;;23.79;73.58
78845;BME280;68195;50.854;2.860;2023-08-20T10:48:51;102167.03;;;23.79;74.10
78845;BME280;68195;50.854;2.860;2023-08-20T10:51:27;102174.78;;;23.82;72.59
78845;BME280;68195;50.854;2.860;2023-08-20T10:59:06;102168.94;;;24.30;75.32
78845;BME280;68195;50.854;2.860;2023-08-20T11:01:32;102158.13;;;24.52;75.17
78845;BME280;68195;50.854;2.860;2023-08-20T11:03:58;102162.13;;;24.47;71.29
78845;BME280;68195;50.854;2.860;2023-08-20T11:06:31;102153.50;;;24.12;70.72
78845;BME280;68195;50.854;2.860;2023-08-20T11:08:57;102163.03;;;24.36;72.92
78845;BME280;68195;50.854;2.860;2023-08-20T11:11:23;102147.88;;;24.36;71.36
78845;BME280;68195;50.854;2.860;2023-08-20T11:13:51;102154.50;;;24.63;72.78
78845;BME280;68195;50.854;2.860;2023-08-20T11:18:46;102141.44;;;24.60;69.39
78845;BME280;68195;50.854;2.860;2023-08-20T11:21:12;102157.59;;;24.59;69.75
78845;BME280;68195;50.854;2.860;2023-08-20T11:23:39;102137.97;;;24.27;69.66
78845;BME280;68195;50.854;2.860;2023-08-20T11:26:07;102116.53;;;24.08;69.51
78845;BME280;68195;50.854;2.860;2023-08-20T11:28:35;102079.22;;;24.18;71.63
78845;BME280;68195;50.854;2.860;2023-08-20T11:31:01;102142.97;;;24.63;69.38
78845;BME280;68195;50.854;2.860;2023-08-20T11:33:29;102144.16;;;24.49;69.47
78845;BME280;68195;50.854;2.860;2023-08-20T11:35:56;102097.19;;;24.15;69.74
78845;BME280;68195;50.854;2.860;2023-08-20T11:38:24;102134.59;;;24.25;70.87
78845;BME280;68195;50.854;2.860;2023-08-20T11:40:50;102110.72;;;24.24;71.44
78845;BME280;68195;50.854;2.860;2023-08-20T11:43:19;102074.50;;;24.00;68.90
78845;BME280;68195;50.854;2.860;2023-08-20T11:45:45;102136.31;;;24.26;69.84
78845;BME280;68195;50.854;2.860;2023-08-20T11:48:11;102137.88;;;24.29;70.87
78845;BME280;68195;50.854;2.860;2023-08-20T11:50:36;102137.66;;;24.21;69.92
78845;BME280;68195;50.854;2.860;2023-08-20T11:53:05;102106.63;;;24.20;71.22
78845;BME280;68195;50.854;2.860;2023-08-20T11:55:30;102117.50;;;24.28;71.05
78845;BME280;68195;50.854;2.860;2023-08-20T11:58:01;102128.50;;;24.44;70.11
78845;BME280;68195;50.854;2.860;2023-08-20T12:00:30;102136.66;;;24.43;69.81
78845;BME280;68195;50.854;2.860;2023-08-20T12:02:57;102132.25;;;24.53;69.62
78845;BME280;68195;50.854;2.860;2023-08-20T12:05:26;102068.97;;;24.23;68.60
78845;BME280;68195;50.854;2.860;2023-08-20T12:08:00;102075.63;;;24.28;68.43
78845;BME280;68195;50.854;2.860;2023-08-20T12:10:29;102133.91;;;24.85;70.56
78845;BME280;68195;50.854;2.860;2023-08-20T12:12:55;102117.22;;;24.92;68.57
78845;BME280;68195;50.854;2.860;2023-08-20T12:15:24;102147.31;;;25.14;67.94
78845;BME280;68195;50.854;2.860;2023-08-20T12:20:27;102149.94;;;25.25;67.23
78845;BME280;68195;50.854;2.860;2023-08-20T12:23:01;102143.31;;;25.20;67.25
78845;BME280;68195;50.854;2.860;2023-08-20T12:25:30;102099.78;;;25.08;67.45
78845;BME280;68195;50.854;2.860;2023-08-20T12:27:56;102138.53;;;25.23;66.34
78845;BME280;68195;50.854;2.860;2023-08-20T12:30:24;102051.44;;;24.61;65.90
78845;BME280;68195;50.854;2.860;2023-08-20T12:32:49;102074.78;;;24.68;66.85
78845;BME280;68195;50.854;2.860;2023-08-20T12:35:17;102119.31;;;24.98;68.85
78845;BME280;68195;50.854;2.860;2023-08-20T12:37:45;102105.69;;;25.11;68.81
78845;BME280;68195;50.854;2.860;2023-08-20T12:40:13;102105.38;;;25.05;66.35
78845;BME280;68195;50.854;2.860;2023-08-20T12:42:39;102085.25;;;25.01;68.38
78845;BME280;68195;50.854;2.860;2023-08-20T12:45:08;102092.19;;;25.13;68.33
78845;BME280;68195;50.854;2.860;2023-08-20T12:47:35;102134.16;;;25.42;65.76
78845;BME280;68195;50.854;2.860;2023-08-20T12:50:01;102142.19;;;25.42;65.56
78845;BME280;68195;50.854;2.860;2023-08-20T12:52:28;102132.34;;;25.32;65.48
78845;BME280;68195;50.854;2.860;2023-08-20T12:54:54;102115.41;;;25.12;67.17
78845;BME280;68195;50.854;2.860;2023-08-20T12:57:19;102114.94;;;25.07;67.57
78845;BME280;68195;50.854;2.860;2023-08-20T12:59:47;102105.94;;;24.89;67.03
78845;BME280;68195;50.854;2.860;2023-08-20T13:02:14;102107.19;;;24.85;68.03
78845;BME280;68195;50.854;2.860;2023-08-20T13:04:41;102119.00;;;24.92;68.28
78845;BME280;68195;50.854;2.860;2023-08-20T13:07:12;102145.88;;;24.90;68.61
78845;BME280;68195;50.854;2.860;2023-08-20T13:09:38;102148.28;;;24.93;69.28
78845;BME280;68195;50.854;2.860;2023-08-20T13:12:09;102103.34;;;24.68;68.57
78845;BME280;68195;50.854;2.860;2023-08-20T13:14:40;102141.94;;;24.85;68.02
78845;BME280;68195;50.854;2.860;2023-08-20T13:17:06;102158.56;;;24.98;68.56